createdAt,value
2022-12-16T00:01:35.048Z,100989.00
2022-12-16T00:04:01.877Z,100985.88
2022-12-16T00:06:30.707Z,100997.22
2022-12-16T00:08:57.346Z,100998.13
2022-12-16T00:11:24.135Z,100987.97
2022-12-16T00:13:51.164Z,101000.09
2022-12-16T00:16:19.704Z,100995.00
2022-12-16T00:18:46.794Z,101002.94
2022-12-16T00:21:14.198Z,100996.88
2022-12-16T00:23:42.014Z,100997.81
2022-12-16T00:26:09.094Z,101000.41
2022-12-16T00:28:35.881Z,100994.28
2022-12-16T00:31:02.570Z,100996.88
2022-12-16T00:33:29.421Z,100996.88
2022-12-16T00:35:56.544Z,100990.94
2022-12-16T00:38:24.068Z,100988.34
2022-12-16T00:40:52.132Z,100994.47
2022-12-16T00:43:20.582Z,100994.47
2022-12-16T00:45:47.794Z,100995.31
2022-12-16T00:48:14.523Z,100995.22
2022-12-16T00:50:41.220Z,100997.06
2022-12-16T00:53:08.340Z,100991.88
2022-12-16T00:55:35.016Z,100984.09
2022-12-16T00:58:01.708Z,100984.00
2022-12-16T01:00:28.309Z,100977.25
2022-12-16T01:02:55.047Z,100982.53
2022-12-16T01:05:26.918Z,100990.31
2022-12-16T01:07:54.707Z,100986.97
2022-12-16T01:10:21.907Z,100994.06
2022-12-16T01:12:48.523Z,100991.47
2022-12-16T01:15:15.303Z,100989.78
2022-12-16T01:17:43.077Z,100997.59
2022-12-16T01:20:10.110Z,100990.72
2022-12-16T01:22:36.865Z,100988.03
2022-12-16T01:25:04.303Z,100988.97
2022-12-16T01:27:31.150Z,100994.16
2022-12-16T01:29:57.951Z,100999.44
2022-12-16T01:32:24.605Z,101006.31
2022-12-16T01:34:55.349Z,101009.75
2022-12-16T01:37:23.089Z,101014.09
2022-12-16T01:39:50.782Z,101016.59
2022-12-16T01:42:19.940Z,101018.28
2022-12-16T01:44:48.894Z,101020.75
2022-12-16T01:47:21.034Z,101021.59
2022-12-16T01:49:52.557Z,101026.88
2022-12-16T01:52:26.329Z,101032.91
2022-12-16T01:54:56.785Z,101039.88
2022-12-16T01:57:27.304Z,101044.25
2022-12-16T01:59:55.549Z,101045.19
2022-12-16T02:02:23.306Z,101049.63
2022-12-16T02:05:22.629Z,101058.34
2022-12-16T02:08:12.373Z,101064.38
2022-12-16T02:10:44.742Z,101062.72
2022-12-16T02:13:35.943Z,101072.19
2022-12-16T02:16:05.850Z,101062.72
2022-12-16T02:18:38.702Z,101058.47
2022-12-16T02:21:13.803Z,101070.72
2022-12-16T02:23:59.001Z,101070.72
2022-12-16T02:26:25.642Z,101064.69
2022-12-16T02:29:04.552Z,101077.66
2022-12-16T02:31:37.262Z,101069.97
2022-12-16T02:34:03.872Z,101069.16
2022-12-16T02:36:43.556Z,101072.47
2022-12-16T02:39:21.981Z,101067.56
2022-12-16T02:41:54.731Z,101069.34
2022-12-16T02:44:26.469Z,101070.38
2022-12-16T02:46:55.515Z,101070.66
2022-12-16T02:49:22.337Z,101070.94
2022-12-16T02:51:49.499Z,101069.38
2022-12-16T02:54:17.697Z,101071.34
2022-12-16T02:56:47.106Z,101074.78
2022-12-16T02:59:19.096Z,101077.53
2022-12-16T03:01:49.317Z,101073.28
2022-12-16T03:04:19.569Z,101083.78
2022-12-16T03:06:49.408Z,101096.75
2022-12-16T03:09:17.731Z,101088.84
2022-12-16T03:11:45.708Z,101087.09
2022-12-16T03:14:14.788Z,101092.19
2022-12-16T03:16:42.220Z,101099.16
2022-12-16T03:19:11.885Z,101110.38
2022-12-16T03:21:42.690Z,101103.50
2022-12-16T03:24:10.964Z,101115.66
2022-12-16T03:26:43.695Z,101107.78
2022-12-16T03:29:19.730Z,101104.34
2022-12-16T03:31:52.495Z,101122.31
2022-12-16T03:34:22.057Z,101107.56
2022-12-16T03:36:51.723Z,101109.34
2022-12-16T03:39:20.570Z,101100.00
2022-12-16T03:41:49.826Z,101106.03
2022-12-16T03:44:17.492Z,101105.34
2022-12-16T03:46:44.250Z,101107.22
2022-12-16T03:49:10.954Z,101114.25
2022-12-16T03:51:37.581Z,101104.00
2022-12-16T03:54:04.331Z,101111.66
2022-12-16T03:56:31.103Z,101105.63
2022-12-16T03:58:57.742Z,101112.59
2022-12-16T04:01:24.698Z,101114.25
2022-12-16T04:03:51.533Z,101119.38
2022-12-16T04:06:18.991Z,101121.13
2022-12-16T04:08:48.798Z,101116.03
2022-12-16T04:11:37.656Z,101116.88
2022-12-16T04:14:22.717Z,101120.28
2022-12-16T04:17:07.808Z,101118.63
2022-12-16T04:19:55.239Z,101129.97
2022-12-16T04:22:45.426Z,101129.22
2022-12-16T04:25:21.112Z,101132.66
2022-12-16T04:27:47.760Z,101123.09
2022-12-16T04:30:21.022Z,101130.03
2022-12-16T04:33:26.881Z,101125.78
2022-12-16T04:36:11.948Z,101133.56
2022-12-16T04:38:57.049Z,101129.22
2022-12-16T04:41:42.083Z,101133.47
2022-12-16T04:44:27.257Z,101135.16
2022-12-16T04:47:12.155Z,101138.66
2022-12-16T04:49:57.285Z,101140.44
2022-12-16T04:52:42.810Z,101144.03
2022-12-16T04:55:28.391Z,101147.56
2022-12-16T04:58:14.677Z,101148.50
2022-12-16T05:01:00.203Z,101147.66
2022-12-16T05:03:45.344Z,101147.66
2022-12-16T05:06:30.846Z,101157.22
2022-12-16T05:09:15.984Z,101153.97
2022-12-16T05:12:01.209Z,101154.13
2022-12-16T05:14:46.143Z,101154.13
2022-12-16T05:17:31.316Z,101161.19
2022-12-16T05:20:16.893Z,101163.78
2022-12-16T05:23:18.871Z,101167.31
2022-12-16T05:26:03.905Z,101165.72
2022-12-16T05:28:49.119Z,101164.88
2022-12-16T05:31:34.389Z,101167.59
2022-12-16T05:34:19.665Z,101172.94
2022-12-16T05:37:04.920Z,101170.75
2022-12-16T05:39:49.842Z,101175.19
2022-12-16T05:42:34.885Z,101173.56
2022-12-16T05:45:19.984Z,101174.69
2022-12-16T05:48:07.687Z,101174.69
2022-12-16T05:50:53.308Z,101175.72
2022-12-16T05:53:40.943Z,101172.94
2022-12-16T05:56:25.956Z,101185.63
2022-12-16T05:59:11.146Z,101194.25
2022-12-16T06:01:56.366Z,101193.53
2022-12-16T06:04:41.539Z,101199.72
2022-12-16T06:07:26.488Z,101200.75
2022-12-16T06:10:11.578Z,101197.22
2022-12-16T06:12:56.821Z,101202.50
2022-12-16T06:15:41.894Z,101207.50
2022-12-16T06:18:27.043Z,101193.88
2022-12-16T06:21:12.036Z,101193.03
2022-12-16T06:23:57.151Z,101197.41
2022-12-16T06:26:42.315Z,101196.63
2022-12-16T06:29:28.391Z,101198.31
2022-12-16T06:32:13.641Z,101199.06
2022-12-16T06:34:58.635Z,101203.34
2022-12-16T06:37:44.864Z,101211.00
2022-12-16T06:40:29.828Z,101205.94
2022-12-16T06:43:15.064Z,101210.38
2022-12-16T06:46:00.240Z,101219.25
2022-12-16T06:48:45.283Z,101216.81
2022-12-16T06:51:30.561Z,101223.78
2022-12-16T06:54:15.895Z,101227.31
2022-12-16T06:57:01.000Z,101230.56
2022-12-16T06:59:56.819Z,101236.66
2022-12-16T07:02:42.206Z,101234.06
2022-12-16T07:05:29.010Z,101234.00
2022-12-16T07:08:16.607Z,101219.25
2022-12-16T07:11:15.624Z,101227.97
2022-12-16T07:14:01.834Z,101223.03
2022-12-16T07:16:47.066Z,101223.03
2022-12-16T07:19:32.264Z,101228.88
2022-12-16T07:22:20.584Z,101237.56
2022-12-16T07:25:05.972Z,101253.91
2022-12-16T07:27:52.501Z,101247.97
2022-12-16T07:33:36.791Z,101263.25
2022-12-16T07:36:22.587Z,101267.53
2022-12-16T07:39:07.839Z,101264.09
2022-12-16T07:41:53.492Z,101264.94
2022-12-16T07:44:39.278Z,101267.72
2022-12-16T07:47:24.585Z,101278.25
2022-12-16T07:50:09.920Z,101281.03
2022-12-16T07:52:55.708Z,101284.47
2022-12-16T07:55:40.983Z,101294.84
2022-12-16T07:58:26.026Z,101298.94
2022-12-16T08:01:11.148Z,101300.59
2022-12-16T08:03:56.325Z,101304.19
2022-12-16T08:06:41.962Z,101300.69
2022-12-16T08:09:27.170Z,101311.06
2022-12-16T08:12:12.317Z,101306.63
2022-12-16T08:14:58.986Z,101306.72
2022-12-16T08:17:45.921Z,101321.44
2022-12-16T08:20:31.696Z,101317.34
2022-12-16T08:23:17.306Z,101320.97
2022-12-16T08:26:02.869Z,101329.66
2022-12-16T08:28:47.898Z,101327.06
2022-12-16T08:31:33.220Z,101332.34
2022-12-16T08:34:18.462Z,101334.09
2022-12-16T08:37:03.527Z,101333.25
2022-12-16T08:39:54.865Z,101336.94
2022-12-16T08:42:53.893Z,101341.47
2022-12-16T08:45:41.602Z,101345.06
2022-12-16T08:48:26.643Z,101341.84
2022-12-16T08:51:11.614Z,101346.22
2022-12-16T08:53:56.709Z,101352.41
2022-12-16T08:56:41.835Z,101349.63
2022-12-16T08:59:26.885Z,101359.09
2022-12-16T09:02:12.227Z,101359.75
2022-12-16T09:04:57.756Z,101352.06
2022-12-16T09:07:55.993Z,101361.38
2022-12-16T09:10:42.835Z,101358.59
2022-12-16T09:13:29.669Z,101369.63
2022-12-16T09:16:19.222Z,101368.56
2022-12-16T09:19:05.093Z,101370.19
2022-12-16T09:21:50.122Z,101382.00
2022-12-16T09:24:35.311Z,101381.84
2022-12-16T09:27:20.283Z,101381.84
2022-12-16T09:30:05.463Z,101386.84
2022-12-16T09:32:50.496Z,101385.00
2022-12-16T09:35:35.836Z,101391.28
2022-12-16T09:38:20.812Z,101392.22
2022-12-16T09:41:08.871Z,101391.28
2022-12-16T09:44:03.982Z,101394.97
2022-12-16T09:47:03.638Z,101391.38
2022-12-16T09:50:03.141Z,101380.09
2022-12-16T09:52:51.660Z,101388.59
2022-12-16T09:55:49.649Z,101395.56
2022-12-16T09:58:36.290Z,101400.75
2022-12-16T10:01:21.432Z,101403.25
2022-12-16T10:04:07.234Z,101419.59
2022-12-16T10:07:05.589Z,101405.78
2022-12-16T10:09:59.999Z,101421.84
2022-12-16T10:12:51.156Z,101426.69
2022-12-16T10:15:41.165Z,101415.13
2022-12-16T10:18:36.525Z,101427.25
2022-12-16T10:21:22.946Z,101422.75
2022-12-16T10:24:15.167Z,101420.72
2022-12-16T10:27:19.376Z,101429.00
2022-12-16T10:30:04.944Z,101433.84
2022-12-16T10:33:01.981Z,101426.69
2022-12-16T10:35:55.648Z,101429.97
2022-12-16T10:38:43.835Z,101430.63
2022-12-16T10:41:31.467Z,101430.44
2022-12-16T10:44:17.659Z,101435.56
2022-12-16T10:47:05.095Z,101436.59
2022-12-16T10:49:55.017Z,101436.41
2022-12-16T10:52:40.371Z,101436.19
2022-12-16T10:55:39.074Z,101431.56
2022-12-16T10:58:24.338Z,101439.84
2022-12-16T11:01:11.034Z,101435.31
2022-12-16T11:03:57.701Z,101428.19
2022-12-16T11:06:47.426Z,101435.78
2022-12-16T11:09:49.023Z,101433.94
2022-12-16T11:12:37.063Z,101437.13
2022-12-16T11:15:41.360Z,101431.72
2022-12-16T11:18:34.339Z,101430.72
2022-12-16T11:21:29.569Z,101422.16
2022-12-16T11:24:34.222Z,101423.00
2022-12-16T11:27:21.309Z,101425.31
2022-12-16T11:30:11.095Z,101421.69
2022-12-16T11:32:57.274Z,101422.25
2022-12-16T11:35:46.796Z,101420.31
2022-12-16T11:38:51.228Z,101415.00
2022-12-16T11:41:42.323Z,101417.34
2022-12-16T11:44:32.011Z,101411.13
2022-12-16T11:47:17.727Z,101416.03
2022-12-16T11:50:03.478Z,101420.22
2022-12-16T11:52:49.178Z,101416.44
2022-12-16T11:56:04.982Z,101418.81
2022-12-16T11:59:03.466Z,101414.19
2022-12-16T12:02:07.383Z,101415.72
2022-12-16T12:04:54.015Z,101415.47
2022-12-16T12:07:48.814Z,101420.28
2022-12-16T12:10:42.831Z,101417.22
2022-12-16T12:13:46.036Z,101419.44
2022-12-16T12:16:41.430Z,101423.44
2022-12-16T12:19:33.523Z,101428.22
2022-12-16T12:22:23.510Z,101423.78
2022-12-16T12:25:08.611Z,101426.63
2022-12-16T12:28:12.835Z,101425.50
2022-12-16T12:31:18.316Z,101425.59
2022-12-16T12:34:24.206Z,101427.91
2022-12-16T12:37:13.221Z,101432.75
2022-12-16T12:40:14.130Z,101429.72
2022-12-16T12:43:11.039Z,101424.22
2022-12-16T12:46:08.411Z,101421.34
2022-12-16T12:48:57.496Z,101421.50
2022-12-16T12:51:54.200Z,101429.53
2022-12-16T12:54:48.344Z,101432.97
2022-12-16T12:57:34.456Z,101432.97
2022-12-16T13:00:24.578Z,101427.34
2022-12-16T13:03:16.772Z,101428.00
2022-12-16T13:06:02.277Z,101419.16
2022-12-16T13:08:50.419Z,101421.56
2022-12-16T13:11:35.712Z,101424.88
2022-12-16T13:14:21.085Z,101428.97
2022-12-16T13:17:20.293Z,101424.59
2022-12-16T13:20:12.300Z,101427.19
2022-12-16T13:23:17.427Z,101427.00
2022-12-16T13:26:11.956Z,101424.94
2022-12-16T13:28:58.579Z,101419.59
2022-12-16T13:31:44.849Z,101425.88
2022-12-16T13:34:33.059Z,101414.69
2022-12-16T13:37:26.960Z,101420.66
2022-12-16T13:40:33.546Z,101420.56
2022-12-16T13:43:23.530Z,101416.19
2022-12-16T13:46:18.734Z,101422.22
2022-12-16T13:49:04.250Z,101427.44
2022-12-16T13:51:59.950Z,101422.66
2022-12-16T13:55:03.960Z,101426.09
2022-12-16T13:57:51.298Z,101413.81
2022-12-16T14:00:38.189Z,101422.34
2022-12-16T14:03:28.935Z,101424.13
2022-12-16T14:06:14.454Z,101424.25
2022-12-16T14:09:22.917Z,101434.75
2022-12-16T14:12:20.594Z,101429.75
2022-12-16T14:15:14.114Z,101432.25
2022-12-16T14:18:10.062Z,101433.91
2022-12-16T14:21:05.195Z,101436.31
2022-12-16T14:23:58.392Z,101431.94
2022-12-16T14:26:45.974Z,101438.91
2022-12-16T14:29:40.335Z,101438.19
2022-12-16T14:32:40.856Z,101435.78
2022-12-16T14:35:31.504Z,101441.13
2022-12-16T14:38:16.664Z,101440.28
2022-12-16T14:41:01.823Z,101438.59
2022-12-16T14:43:46.891Z,101445.56
2022-12-16T14:46:47.202Z,101450.88
2022-12-16T14:49:40.509Z,101441.41
2022-12-16T14:52:42.454Z,101447.34
2022-12-16T14:55:33.748Z,101454.25
2022-12-16T14:58:38.617Z,101466.44
2022-12-16T15:01:34.259Z,101463.91
2022-12-16T15:04:22.049Z,101477.06
2022-12-16T15:07:09.140Z,101474.56
2022-12-16T15:09:58.420Z,101477.91
2022-12-16T15:12:46.717Z,101483.22
2022-12-16T15:15:51.000Z,101480.59
2022-12-16T15:18:57.359Z,101474.84
2022-12-16T15:21:42.845Z,101484.66
2022-12-16T15:24:29.222Z,101487.44
2022-12-16T15:27:41.524Z,101489.31
2022-12-16T15:30:45.748Z,101492.22
2022-12-16T15:33:26.351Z,101501.97
2022-12-16T15:36:11.724Z,101498.66
2022-12-16T15:38:59.176Z,101499.75
2022-12-16T15:41:51.915Z,101505.94
2022-12-16T15:44:41.597Z,101499.13
2022-12-16T15:47:49.924Z,101505.38
2022-12-16T15:50:37.032Z,101509.63
2022-12-16T15:53:41.195Z,101512.25
2022-12-16T15:56:34.825Z,101511.44
2022-12-16T15:59:33.156Z,101514.03
2022-12-16T16:02:24.344Z,101519.25
2022-12-16T16:05:12.412Z,101519.31
2022-12-16T16:08:03.996Z,101527.44
2022-12-16T16:10:50.759Z,101530.31
2022-12-16T16:13:36.300Z,101527.19
2022-12-16T16:16:22.131Z,101525.66
2022-12-16T16:19:07.535Z,101533.59
2022-12-16T16:21:52.727Z,101536.91
2022-12-16T16:24:37.958Z,101527.63
2022-12-16T16:27:27.971Z,101525.31
2022-12-16T16:30:13.062Z,101536.84
2022-12-16T16:32:58.250Z,101535.25
2022-12-16T16:35:43.367Z,101530.16
2022-12-16T16:38:29.870Z,101529.41
2022-12-16T16:41:15.529Z,101535.66
2022-12-16T16:44:01.003Z,101531.47
2022-12-16T16:46:49.729Z,101530.69
2022-12-16T16:49:39.444Z,101537.78
2022-12-16T16:52:29.105Z,101538.72
2022-12-16T16:55:14.068Z,101539.00
2022-12-16T16:58:01.472Z,101534.91
2022-12-16T17:00:46.646Z,101543.78
2022-12-16T17:03:32.702Z,101544.84
2022-12-16T17:06:18.811Z,101546.69
2022-12-16T17:09:03.903Z,101546.69
2022-12-16T17:11:49.671Z,101542.16
2022-12-16T17:14:36.215Z,101549.84
2022-12-16T17:17:21.739Z,101551.44
2022-12-16T17:20:23.719Z,101547.06
2022-12-16T17:23:08.769Z,101560.25
2022-12-16T17:25:55.636Z,101556.09
2022-12-16T17:28:41.825Z,101564.72
2022-12-16T17:31:27.491Z,101562.22
2022-12-16T17:34:12.555Z,101558.03
2022-12-16T17:36:57.545Z,101551.31
2022-12-16T17:39:42.680Z,101559.31
2022-12-16T17:42:27.895Z,101557.72
2022-12-16T17:45:32.784Z,101554.38
2022-12-16T17:48:18.063Z,101557.84
2022-12-16T17:51:03.606Z,101559.50
2022-12-16T17:53:55.703Z,101563.69
2022-12-16T17:56:43.983Z,101556.72
2022-12-16T17:59:29.081Z,101558.47
2022-12-16T18:02:14.309Z,101561.91
2022-12-16T18:04:59.540Z,101562.13
2022-12-16T18:07:45.155Z,101562.84
2022-12-16T18:10:30.193Z,101562.19
2022-12-16T18:13:15.244Z,101561.63
2022-12-16T18:16:00.366Z,101556.34
2022-12-16T18:18:46.445Z,101556.34
2022-12-16T18:21:32.706Z,101562.28
2022-12-16T18:24:17.734Z,101558.94
2022-12-16T18:27:02.880Z,101559.88
2022-12-16T18:29:47.889Z,101559.75
2022-12-16T18:32:35.392Z,101562.34
2022-12-16T18:35:21.030Z,101564.03
2022-12-16T18:38:06.056Z,101563.19
2022-12-16T18:40:51.207Z,101567.56
2022-12-16T18:43:36.469Z,101565.78
2022-12-16T18:46:22.009Z,101571.00
2022-12-16T18:49:07.145Z,101570.28
2022-12-16T18:51:52.325Z,101587.72
2022-12-16T18:54:37.386Z,101584.53
2022-12-16T18:57:22.433Z,101590.78
2022-12-16T19:00:07.635Z,101589.75
2022-12-16T19:02:54.320Z,101593.19
2022-12-16T19:05:39.599Z,101587.00
2022-12-16T19:08:24.751Z,101593.28
2022-12-16T19:11:14.342Z,101592.53
2022-12-16T19:13:59.818Z,101609.97
2022-12-16T19:16:45.012Z,101604.88
2022-12-16T19:19:30.096Z,101605.88
2022-12-16T19:22:15.202Z,101604.28
2022-12-16T19:25:00.293Z,101616.63
2022-12-16T19:27:45.377Z,101614.03
2022-12-16T19:30:30.483Z,101614.13
2022-12-16T19:33:15.430Z,101605.31
2022-12-16T19:36:00.661Z,101605.25
2022-12-16T19:38:45.669Z,101607.00
2022-12-16T19:41:34.363Z,101615.78
2022-12-16T19:44:19.956Z,101616.81
2022-12-16T19:47:05.205Z,101623.72
2022-12-16T19:49:50.343Z,101628.22
2022-12-16T19:52:35.313Z,101628.31
2022-12-16T19:55:20.461Z,101632.50
2022-12-16T19:58:05.456Z,101633.28
2022-12-16T20:00:50.665Z,101635.03
2022-12-16T20:03:37.577Z,101633.28
2022-12-16T20:06:26.156Z,101634.09
2022-12-16T20:09:12.300Z,101638.63
2022-12-16T20:11:57.538Z,101642.25
2022-12-16T20:14:43.008Z,101631.09
2022-12-16T20:17:28.647Z,101644.00
2022-12-16T20:20:14.307Z,101642.41
2022-12-16T20:22:59.375Z,101645.00
2022-12-16T20:25:45.030Z,101646.75
2022-12-16T20:28:30.716Z,101650.38
2022-12-16T20:31:19.942Z,101656.50
2022-12-16T20:34:05.120Z,101647.03
2022-12-16T20:36:50.344Z,101652.22
2022-12-16T20:39:35.609Z,101647.84
2022-12-16T20:42:20.687Z,101655.59
2022-12-16T20:45:05.980Z,101661.63
2022-12-16T20:47:51.062Z,101660.00
2022-12-16T20:50:36.890Z,101661.19
2022-12-16T20:53:22.059Z,101651.75
2022-12-16T20:56:07.195Z,101657.94
2022-12-16T20:58:56.133Z,101655.50
2022-12-16T21:01:47.965Z,101651.31
2022-12-16T21:04:46.735Z,101659.22
2022-12-16T21:07:31.840Z,101657.53
2022-12-16T21:10:16.937Z,101667.91
2022-12-16T21:13:06.679Z,101655.78
2022-12-16T21:15:52.062Z,101671.38
2022-12-16T21:18:37.245Z,101680.22
2022-12-16T21:21:22.311Z,101680.34
2022-12-16T21:24:07.380Z,101682.00
2022-12-16T21:26:52.393Z,101674.38
2022-12-16T21:29:38.892Z,101677.03
2022-12-16T21:32:24.152Z,101682.16
2022-12-16T21:35:09.251Z,101678.66
2022-12-16T21:38:01.016Z,101680.59
2022-12-16T21:40:46.382Z,101683.19
2022-12-16T21:43:33.888Z,101690.88
2022-12-16T21:46:19.162Z,101693.66
2022-12-16T21:49:04.375Z,101686.03
2022-12-16T21:51:49.422Z,101686.09
2022-12-16T21:54:34.725Z,101679.28
2022-12-16T21:57:19.814Z,101678.63
2022-12-16T22:00:04.897Z,101676.94
2022-12-16T22:02:49.950Z,101671.59
2022-12-16T22:05:35.109Z,101678.56
2022-12-16T22:08:29.457Z,101676.09
2022-12-16T22:11:15.008Z,101676.09
2022-12-16T22:13:59.977Z,101672.66
2022-12-16T22:16:45.191Z,101678.69
2022-12-16T22:19:30.343Z,101682.13
2022-12-16T22:22:15.389Z,101684.75
2022-12-16T22:25:01.051Z,101683.16
2022-12-16T22:27:51.673Z,101678.03
2022-12-16T22:30:36.889Z,101673.03
2022-12-16T22:33:22.060Z,101675.69
2022-12-16T22:36:07.155Z,101674.00
2022-12-16T22:38:52.796Z,101676.78
2022-12-16T22:41:38.425Z,101674.19
2022-12-16T22:44:23.421Z,101681.13
2022-12-16T22:47:08.512Z,101679.38
2022-12-16T22:49:55.961Z,101687.00
2022-12-16T22:52:41.510Z,101684.63
2022-12-16T22:55:27.089Z,101686.47
2022-12-16T22:58:12.296Z,101690.84
2022-12-16T23:00:58.301Z,101681.28
2022-12-16T23:03:44.213Z,101683.06
2022-12-16T23:06:29.961Z,101685.47
2022-12-16T23:09:15.155Z,101687.16
2022-12-16T23:12:00.263Z,101689.66
2022-12-16T23:14:45.986Z,101694.03
2022-12-16T23:17:31.498Z,101697.44
2022-12-16T23:20:17.189Z,101688.75
2022-12-16T23:23:02.294Z,101686.91
2022-12-16T23:25:47.875Z,101693.09
2022-12-16T23:28:33.065Z,101687.00
2022-12-16T23:31:17.990Z,101694.78
2022-12-16T23:34:03.272Z,101700.06
2022-12-16T23:36:48.386Z,101695.88
2022-12-16T23:39:33.612Z,101698.78
2022-12-16T23:42:18.880Z,101701.38
2022-12-16T23:45:04.012Z,101694.38
2022-12-16T23:47:49.221Z,101692.75
2022-12-16T23:50:34.201Z,101689.41
2022-12-16T23:53:26.326Z,101686.88
2022-12-16T23:56:18.483Z,101688.88
2022-12-16T23:59:05.605Z,101691.63
